sensor_id;sensor_type;location;lat;lon;timestamp;pressure;altitude;pressure_sealevel;temperature;humidity
51249;BME280;39642;47.556;18.728;2023-06-10T00:01:45;99217.47;;;21.43;66.11
51249;BME280;39642;47.556;18.728;2023-06-10T00:04:14;99214.06;;;21.41;66.08
51249;BME280;39642;47.556;18.728;2023-06-10T00:06:42;99209.66;;;21.41;66.08
51249;BME280;39642;47.556;18.728;2023-06-10T00:09:09;99208.78;;;21.41;66.04
51249;BME280;39642;47.556;18.728;2023-06-10T00:11:40;99208.78;;;21.41;66.03
51249;BME280;39642;47.556;18.728;2023-06-10T00:14:06;99210.59;;;21.40;66.02
51249;BME280;39642;47.556;18.728;2023-06-10T00:16:33;99207.94;;;21.40;66.03
51249;BME280;39642;47.556;18.728;2023-06-10T00:19:00;99202.66;;;21.40;66.02
51249;BME280;39642;47.556;18.728;2023-06-10T00:21:33;99208.78;;;21.41;66.01
51249;BME280;39642;47.556;18.728;2023-06-10T00:24:09;99204.41;;;21.40;66.02
51249;BME280;39642;47.556;18.728;2023-06-10T00:26:39;99203.59;;;21.39;66.02
51249;BME280;39642;47.556;18.728;2023-06-10T00:29:05;99207.06;;;21.40;66.07
51249;BME280;39642;47.556;18.728;2023-06-10T00:31:31;99200.00;;;21.40;66.07
51249;BME280;39642;47.556;18.728;2023-06-10T00:33:57;99199.91;;;21.42;66.06
51249;BME280;39642;47.556;18.728;2023-06-10T00:36:24;99201.78;;;21.40;66.03
51249;BME280;39642;47.556;18.728;2023-06-10T00:38:50;99199.13;;;21.40;66.04
51249;BME280;39642;47.556;18.728;2023-06-10T00:41:16;99202.66;;;21.40;66.02
51249;BME280;39642;47.556;18.728;2023-06-10T00:43:42;99201.78;;;21.40;65.99
51249;BME280;39642;47.556;18.728;2023-06-10T00:46:08;99211.53;;;21.39;65.97
51249;BME280;39642;47.556;18.728;2023-06-10T00:48:33;99202.72;;;21.39;65.92
51249;BME280;39642;47.556;18.728;2023-06-10T00:51:00;99202.72;;;21.39;65.89
51249;BME280;39642;47.556;18.728;2023-06-10T00:53:26;99200.06;;;21.39;65.85
51249;BME280;39642;47.556;18.728;2023-06-10T00:55:53;99207.16;;;21.38;65.81
51249;BME280;39642;47.556;18.728;2023-06-10T00:58:19;99202.84;;;21.37;65.77
51249;BME280;39642;47.556;18.728;2023-06-10T01:00:45;99208.97;;;21.38;65.73
51249;BME280;39642;47.556;18.728;2023-06-10T01:03:12;99214.28;;;21.38;65.71
51249;BME280;39642;47.556;18.728;2023-06-10T01:05:38;99215.25;;;21.37;65.71
51249;BME280;39642;47.556;18.728;2023-06-10T01:08:19;99214.28;;;21.38;65.65
51249;BME280;39642;47.556;18.728;2023-06-10T01:11:00;99208.97;;;21.38;65.63
51249;BME280;39642;47.556;18.728;2023-06-10T01:13:28;99203.69;;;21.38;65.56
51249;BME280;39642;47.556;18.728;2023-06-10T01:15:55;99201.03;;;21.38;65.54
51249;BME280;39642;47.556;18.728;2023-06-10T01:18:22;99201.13;;;21.36;65.50
51249;BME280;39642;47.556;18.728;2023-06-10T01:20:48;99202.94;;;21.36;65.49
51249;BME280;39642;47.556;18.728;2023-06-10T01:23:15;99208.97;;;21.38;65.42
51249;BME280;39642;47.556;18.728;2023-06-10T01:25:47;99214.38;;;21.36;65.35
51249;BME280;39642;47.556;18.728;2023-06-10T01:28:27;99202.84;;;21.37;65.29
51249;BME280;39642;47.556;18.728;2023-06-10T01:31:17;99207.31;;;21.37;65.25
51249;BME280;39642;47.556;18.728;2023-06-10T01:33:49;99205.59;;;21.36;65.20
51249;BME280;39642;47.556;18.728;2023-06-10T01:36:17;99204.75;;;21.35;65.18
51249;BME280;39642;47.556;18.728;2023-06-10T01:38:45;99204.75;;;21.35;65.20
51249;BME280;39642;47.556;18.728;2023-06-10T01:41:13;99203.91;;;21.35;65.19
51249;BME280;39642;47.556;18.728;2023-06-10T01:43:39;99208.34;;;21.34;65.21
51249;BME280;39642;47.556;18.728;2023-06-10T01:46:06;99213.63;;;21.34;65.22
51249;BME280;39642;47.556;18.728;2023-06-10T01:48:32;99210.97;;;21.34;65.19
51249;BME280;39642;47.556;18.728;2023-06-10T01:50:58;99212.69;;;21.35;65.16
51249;BME280;39642;47.556;18.728;2023-06-10T01:53:24;99204.66;;;21.37;65.12
51249;BME280;39642;47.556;18.728;2023-06-10T01:55:50;99206.44;;;21.36;65.10
51249;BME280;39642;47.556;18.728;2023-06-10T01:58:16;99207.41;;;21.35;65.13
51249;BME280;39642;47.556;18.728;2023-06-10T02:00:42;99205.69;;;21.34;65.15
51249;BME280;39642;47.556;18.728;2023-06-10T02:03:08;99201.25;;;21.35;65.18
51249;BME280;39642;47.556;18.728;2023-06-10T02:05:34;99204.84;;;21.34;65.21
51249;BME280;39642;47.556;18.728;2023-06-10T02:08:00;99204.00;;;21.33;65.27
51249;BME280;39642;47.556;18.728;2023-06-10T02:10:26;99200.41;;;21.34;65.36
51249;BME280;39642;47.556;18.728;2023-06-10T02:12:52;99202.19;;;21.34;65.36
51249;BME280;39642;47.556;18.728;2023-06-10T02:15:18;99203.03;;;21.34;65.44
51249;BME280;39642;47.556;18.728;2023-06-10T02:17:44;99207.50;;;21.34;65.52
51249;BME280;39642;47.556;18.728;2023-06-10T02:20:14;99209.31;;;21.33;65.61
51249;BME280;39642;47.556;18.728;2023-06-10T02:22:40;99206.56;;;21.35;65.60
51249;BME280;39642;47.556;18.728;2023-06-10T02:25:06;99204.75;;;21.35;65.60
51249;BME280;39642;47.556;18.728;2023-06-10T02:27:33;99213.63;;;21.34;65.68
51249;BME280;39642;47.556;18.728;2023-06-10T02:29:58;99204.84;;;21.34;65.68
51249;BME280;39642;47.556;18.728;2023-06-10T02:32:24;99199.56;;;21.34;65.64
51249;BME280;39642;47.556;18.728;2023-06-10T02:34:51;99207.50;;;21.34;65.64
51249;BME280;39642;47.556;18.728;2023-06-10T02:37:17;99207.50;;;21.34;65.67
51249;BME280;39642;47.556;18.728;2023-06-10T02:39:43;99201.25;;;21.35;65.64
51249;BME280;39642;47.556;18.728;2023-06-10T02:42:09;99204.84;;;21.34;65.69
51249;BME280;39642;47.556;18.728;2023-06-10T02:44:36;99207.50;;;21.34;65.82
51249;BME280;39642;47.556;18.728;2023-06-10T02:47:02;99207.50;;;21.34;65.76
51249;BME280;39642;47.556;18.728;2023-06-10T02:49:27;99218.94;;;21.34;65.77
51249;BME280;39642;47.556;18.728;2023-06-10T02:51:53;99214.50;;;21.35;65.87
51249;BME280;39642;47.556;18.728;2023-06-10T02:54:20;99210.88;;;21.36;65.77
51249;BME280;39642;47.556;18.728;2023-06-10T02:56:46;99212.69;;;21.35;65.85
51249;BME280;39642;47.556;18.728;2023-06-10T02:59:14;99210.06;;;21.35;65.88
51249;BME280;39642;47.556;18.728;2023-06-10T03:01:40;99210.88;;;21.36;65.90
51249;BME280;39642;47.556;18.728;2023-06-10T03:04:06;99213.63;;;21.34;65.97
51249;BME280;39642;47.556;18.728;2023-06-10T03:06:33;99218.09;;;21.34;65.93
51249;BME280;39642;47.556;18.728;2023-06-10T03:09:04;99220.75;;;21.34;65.94
51249;BME280;39642;47.556;18.728;2023-06-10T03:11:30;99218.94;;;21.34;65.93
51249;BME280;39642;47.556;18.728;2023-06-10T03:13:56;99210.28;;;21.32;66.06
51249;BME280;39642;47.556;18.728;2023-06-10T03:16:22;99211.97;;;21.33;65.99
51249;BME280;39642;47.556;18.728;2023-06-10T03:18:50;99211.13;;;21.33;66.01
51249;BME280;39642;47.556;18.728;2023-06-10T03:21:16;99212.78;;;21.34;65.93
51249;BME280;39642;47.556;18.728;2023-06-10T03:23:42;99209.41;;;21.32;66.04
51249;BME280;39642;47.556;18.728;2023-06-10T03:26:08;99212.94;;;21.32;66.03
51249;BME280;39642;47.556;18.728;2023-06-10T03:28:35;99213.63;;;21.34;65.98
51249;BME280;39642;47.556;18.728;2023-06-10T03:31:01;99211.97;;;21.33;66.07
51249;BME280;39642;47.556;18.728;2023-06-10T03:33:27;99210.16;;;21.34;65.99
51249;BME280;39642;47.556;18.728;2023-06-10T03:35:53;99218.09;;;21.34;65.99
51249;BME280;39642;47.556;18.728;2023-06-10T03:38:19;99217.25;;;21.33;66.10
51249;BME280;39642;47.556;18.728;2023-06-10T03:40:45;99210.97;;;21.34;66.02
51249;BME280;39642;47.556;18.728;2023-06-10T03:43:11;99205.81;;;21.33;66.14
51249;BME280;39642;47.556;18.728;2023-06-10T03:45:37;99207.50;;;21.34;66.09
51249;BME280;39642;47.556;18.728;2023-06-10T03:48:03;99213.63;;;21.34;66.06
51249;BME280;39642;47.556;18.728;2023-06-10T03:50:29;99212.78;;;21.34;66.12
51249;BME280;39642;47.556;18.728;2023-06-10T03:52:55;99223.37;;;21.34;66.13
51249;BME280;39642;47.556;18.728;2023-06-10T03:55:21;99221.72;;;21.33;66.17
51249;BME280;39642;47.556;18.728;2023-06-10T03:57:49;99213.75;;;21.33;66.23
51249;BME280;39642;47.556;18.728;2023-06-10T04:00:16;99216.41;;;21.33;66.24
51249;BME280;39642;47.556;18.728;2023-06-10T04:02:46;99216.41;;;21.33;66.33
51249;BME280;39642;47.556;18.728;2023-06-10T04:05:13;99217.25;;;21.33;66.26
51249;BME280;39642;47.556;18.728;2023-06-10T04:07:40;99215.44;;;21.34;66.25
51249;BME280;39642;47.556;18.728;2023-06-10T04:10:08;99217.25;;;21.33;66.28
51249;BME280;39642;47.556;18.728;2023-06-10T04:12:35;99211.97;;;21.33;66.30
51249;BME280;39642;47.556;18.728;2023-06-10T04:15:02;99199.69;;;21.32;66.34
51249;BME280;39642;47.556;18.728;2023-06-10T04:17:28;99206.66;;;21.33;66.32
51249;BME280;39642;47.556;18.728;2023-06-10T04:19:54;99205.69;;;21.34;66.32
51249;BME280;39642;47.556;18.728;2023-06-10T04:22:20;99203.91;;;21.35;66.34
51249;BME280;39642;47.556;18.728;2023-06-10T04:24:46;99207.50;;;21.34;66.42
51249;BME280;39642;47.556;18.728;2023-06-10T04:27:12;99206.56;;;21.35;66.42
51249;BME280;39642;47.556;18.728;2023-06-10T04:29:38;99205.69;;;21.34;66.45
51249;BME280;39642;47.556;18.728;2023-06-10T04:32:04;99218.00;;;21.35;66.43
51249;BME280;39642;47.556;18.728;2023-06-10T04:34:35;99209.22;;;21.35;66.42
51249;BME280;39642;47.556;18.728;2023-06-10T04:37:01;99216.19;;;21.36;66.44
51249;BME280;39642;47.556;18.728;2023-06-10T04:39:27;99216.19;;;21.36;66.45
51249;BME280;39642;47.556;18.728;2023-06-10T04:41:53;99215.34;;;21.35;66.65
51249;BME280;39642;47.556;18.728;2023-06-10T04:44:19;99211.84;;;21.35;66.51
51249;BME280;39642;47.556;18.728;2023-06-10T04:46:45;99210.16;;;21.34;66.62
51249;BME280;39642;47.556;18.728;2023-06-10T04:49:11;99209.22;;;21.35;66.62
51249;BME280;39642;47.556;18.728;2023-06-10T04:51:40;99210.97;;;21.34;66.67
51249;BME280;39642;47.556;18.728;2023-06-10T04:54:06;99205.59;;;21.36;66.61
51249;BME280;39642;47.556;18.728;2023-06-10T04:56:32;99212.69;;;21.35;66.62
51249;BME280;39642;47.556;18.728;2023-06-10T04:58:59;99213.53;;;21.36;66.74
51249;BME280;39642;47.556;18.728;2023-06-10T05:01:25;99210.06;;;21.35;66.81
51249;BME280;39642;47.556;18.728;2023-06-10T05:03:51;99210.06;;;21.35;66.84
51249;BME280;39642;47.556;18.728;2023-06-10T05:06:17;99204.75;;;21.35;66.82
51249;BME280;39642;47.556;18.728;2023-06-10T05:08:43;99211.72;;;21.36;66.87
51249;BME280;39642;47.556;18.728;2023-06-10T05:11:09;99208.34;;;21.34;66.97
51249;BME280;39642;47.556;18.728;2023-06-10T05:13:35;99210.16;;;21.34;66.96
51249;BME280;39642;47.556;18.728;2023-06-10T05:16:02;99205.81;;;21.33;67.07
51249;BME280;39642;47.556;18.728;2023-06-10T05:18:28;99215.56;;;21.32;67.08
51249;BME280;39642;47.556;18.728;2023-06-10T05:20:54;99215.56;;;21.32;67.01
51249;BME280;39642;47.556;18.728;2023-06-10T05:23:20;99222.44;;;21.35;66.89
51249;BME280;39642;47.556;18.728;2023-06-10T05:25:46;99226.78;;;21.36;66.85
51249;BME280;39642;47.556;18.728;2023-06-10T05:28:12;99228.50;;;21.37;66.76
51249;BME280;39642;47.556;18.728;2023-06-10T05:30:38;99229.31;;;21.37;66.92
51249;BME280;39642;47.556;18.728;2023-06-10T05:33:04;99224.03;;;21.37;66.74
51249;BME280;39642;47.556;18.728;2023-06-10T05:35:30;99219.56;;;21.38;66.74
51249;BME280;39642;47.556;18.728;2023-06-10T05:37:56;99215.13;;;21.38;66.64
51249;BME280;39642;47.556;18.728;2023-06-10T05:40:22;99212.47;;;21.38;66.54
51249;BME280;39642;47.556;18.728;2023-06-10T05:42:49;99215.13;;;21.38;66.54
51249;BME280;39642;47.556;18.728;2023-06-10T05:45:15;99218.53;;;21.40;66.44
51249;BME280;39642;47.556;18.728;2023-06-10T05:47:41;99218.53;;;21.40;66.47
51249;BME280;39642;47.556;18.728;2023-06-10T05:50:07;99217.66;;;21.40;66.64
51249;BME280;39642;47.556;18.728;2023-06-10T05:52:37;99227.41;;;21.39;66.63
51249;BME280;39642;47.556;18.728;2023-06-10T05:55:06;99220.41;;;21.38;66.57
51249;BME280;39642;47.556;18.728;2023-06-10T05:57:32;99222.97;;;21.40;66.51
51249;BME280;39642;47.556;18.728;2023-06-10T05:59:58;99227.41;;;21.39;66.53
51249;BME280;39642;47.556;18.728;2023-06-10T06:02:24;99229.97;;;21.41;66.63
51249;BME280;39642;47.556;18.728;2023-06-10T06:04:50;99227.31;;;21.41;66.58
51249;BME280;39642;47.556;18.728;2023-06-10T06:07:16;99221.19;;;21.40;66.58
51249;BME280;39642;47.556;18.728;2023-06-10T06:09:42;99222.97;;;21.40;66.56
51249;BME280;39642;47.556;18.728;2023-06-10T06:12:08;99217.66;;;21.40;66.46
51249;BME280;39642;47.556;18.728;2023-06-10T06:14:37;99229.03;;;21.42;66.44
51249;BME280;39642;47.556;18.728;2023-06-10T06:17:05;99223.63;;;21.44;66.42
51249;BME280;39642;47.556;18.728;2023-06-10T06:19:31;99221.00;;;21.44;66.51
51249;BME280;39642;47.556;18.728;2023-06-10T06:21:57;99225.53;;;21.41;66.40
51249;BME280;39642;47.556;18.728;2023-06-10T06:24:23;99223.63;;;21.44;66.36
51249;BME280;39642;47.556;18.728;2023-06-10T06:26:49;99225.41;;;21.43;66.30
51249;BME280;39642;47.556;18.728;2023-06-10T06:29:15;99230.63;;;21.45;66.26
51249;BME280;39642;47.556;18.728;2023-06-10T06:31:41;99226.16;;;21.45;66.22
51249;BME280;39642;47.556;18.728;2023-06-10T06:34:07;99227.00;;;21.46;66.16
51249;BME280;39642;47.556;18.728;2023-06-10T06:36:32;99230.50;;;21.46;66.14
51249;BME280;39642;47.556;18.728;2023-06-10T06:38:58;99234.94;;;21.46;66.13
51249;BME280;39642;47.556;18.728;2023-06-10T06:41:27;99226.16;;;21.45;66.20
51249;BME280;39642;47.556;18.728;2023-06-10T06:43:54;99236.75;;;21.45;66.10
51249;BME280;39642;47.556;18.728;2023-06-10T06:46:20;99228.81;;;21.45;66.04
51249;BME280;39642;47.556;18.728;2023-06-10T06:48:47;99234.09;;;21.45;66.01
51249;BME280;39642;47.556;18.728;2023-06-10T06:51:13;99240.13;;;21.47;65.95
51249;BME280;39642;47.556;18.728;2023-06-10T06:53:39;99241.09;;;21.46;65.83
51249;BME280;39642;47.556;18.728;2023-06-10T06:56:10;99243.75;;;21.46;65.88
51249;BME280;39642;47.556;18.728;2023-06-10T06:58:36;99240.97;;;21.48;65.81
51249;BME280;39642;47.556;18.728;2023-06-10T07:01:03;99229.53;;;21.47;65.76
51249;BME280;39642;47.556;18.728;2023-06-10T07:03:28;99234.75;;;21.49;65.74
51249;BME280;39642;47.556;18.728;2023-06-10T07:05:54;99231.25;;;21.48;65.67
51249;BME280;39642;47.556;18.728;2023-06-10T07:08:20;99232.94;;;21.49;65.64
51249;BME280;39642;47.556;18.728;2023-06-10T07:10:46;99236.56;;;21.48;65.62
51249;BME280;39642;47.556;18.728;2023-06-10T07:13:12;99231.25;;;21.48;65.60
51249;BME280;39642;47.556;18.728;2023-06-10T07:15:38;99235.56;;;21.49;65.60
51249;BME280;39642;47.556;18.728;2023-06-10T07:18:04;99236.41;;;21.50;65.60
51249;BME280;39642;47.556;18.728;2023-06-10T07:20:30;99238.13;;;21.51;65.59
51249;BME280;39642;47.556;18.728;2023-06-10T07:22:56;99242.56;;;21.50;65.61
51249;BME280;39642;47.556;18.728;2023-06-10T07:25:22;99247.97;;;21.49;65.59
51249;BME280;39642;47.556;18.728;2023-06-10T07:27:49;99243.53;;;21.49;65.58
51249;BME280;39642;47.556;18.728;2023-06-10T07:30:15;99246.06;;;21.51;65.60
51249;BME280;39642;47.556;18.728;2023-06-10T07:32:41;99243.53;;;21.49;65.61
51249;BME280;39642;47.556;18.728;2023-06-10T07:35:09;99243.44;;;21.51;65.61
51249;BME280;39642;47.556;18.728;2023-06-10T07:37:36;99243.44;;;21.51;65.59
51249;BME280;39642;47.556;18.728;2023-06-10T07:40:02;99241.63;;;21.51;65.57
51249;BME280;39642;47.556;18.728;2023-06-10T07:42:28;99244.38;;;21.50;65.55
51249;BME280;39642;47.556;18.728;2023-06-10T07:44:54;99239.06;;;21.50;65.48
51249;BME280;39642;47.556;18.728;2023-06-10T07:47:19;99241.72;;;21.50;65.51
51249;BME280;39642;47.556;18.728;2023-06-10T07:49:45;99236.31;;;21.51;65.51
51249;BME280;39642;47.556;18.728;2023-06-10T07:52:11;99239.06;;;21.50;65.54
51249;BME280;39642;47.556;18.728;2023-06-10T07:54:37;99241.63;;;21.51;65.58
51249;BME280;39642;47.556;18.728;2023-06-10T07:57:03;99237.25;;;21.50;65.62
51249;BME280;39642;47.556;18.728;2023-06-10T07:59:29;99247.16;;;21.48;65.71
51249;BME280;39642;47.556;18.728;2023-06-10T08:01:55;99247.00;;;21.50;65.74
51249;BME280;39642;47.556;18.728;2023-06-10T08:04:21;99242.69;;;21.49;65.70
51249;BME280;39642;47.556;18.728;2023-06-10T08:06:47;99247.16;;;21.48;65.82
51249;BME280;39642;47.556;18.728;2023-06-10T08:09:12;99234.84;;;21.47;66.02
51249;BME280;39642;47.556;18.728;2023-06-10T08:11:38;99240.97;;;21.48;66.07
51249;BME280;39642;47.556;18.728;2023-06-10T08:14:04;99245.34;;;21.49;66.00
51249;BME280;39642;47.556;18.728;2023-06-10T08:16:30;99242.69;;;21.49;65.86
51249;BME280;39642;47.556;18.728;2023-06-10T08:18:56;99249.56;;;21.51;65.79
51249;BME280;39642;47.556;18.728;2023-06-10T08:21:22;99248.59;;;21.52;65.74
51249;BME280;39642;47.556;18.728;2023-06-10T08:23:48;99247.66;;;21.53;65.66
51249;BME280;39642;47.556;18.728;2023-06-10T08:26:13;99250.31;;;21.53;65.64
51249;BME280;39642;47.556;18.728;2023-06-10T08:28:39;99244.16;;;21.53;65.60
51249;BME280;39642;47.556;18.728;2023-06-10T08:31:05;99242.34;;;21.53;65.59
51249;BME280;39642;47.556;18.728;2023-06-10T08:33:31;99244.03;;;21.54;65.54
51249;BME280;39642;47.556;18.728;2023-06-10T08:35:57;99246.81;;;21.53;65.57
51249;BME280;39642;47.556;18.728;2023-06-10T08:38:23;99243.28;;;21.52;65.57
51249;BME280;39642;47.556;18.728;2023-06-10T08:40:50;99246.81;;;21.53;65.57
51249;BME280;39642;47.556;18.728;2023-06-10T08:43:32;99245.19;;;21.50;65.60
51249;BME280;39642;47.556;18.728;2023-06-10T08:46:00;99249.56;;;21.51;65.60
51249;BME280;39642;47.556;18.728;2023-06-10T08:48:29;99244.38;;;21.50;65.63
51249;BME280;39642;47.556;18.728;2023-06-10T08:50:56;99251.47;;;21.49;65.63
51249;BME280;39642;47.556;18.728;2023-06-10T08:53:23;99246.91;;;21.51;65.61
51249;BME280;39642;47.556;18.728;2023-06-10T08:55:53;99247.00;;;21.50;65.55
51249;BME280;39642;47.556;18.728;2023-06-10T08:58:23;99252.13;;;21.53;65.54
51249;BME280;39642;47.556;18.728;2023-06-10T09:00:49;99246.06;;;21.51;65.60
51249;BME280;39642;47.556;18.728;2023-06-10T09:03:16;99247.00;;;21.50;65.61
51249;BME280;39642;47.556;18.728;2023-06-10T09:05:42;99238.22;;;21.49;65.61
51249;BME280;39642;47.556;18.728;2023-06-10T09:08:09;99243.44;;;21.51;65.66
51249;BME280;39642;47.556;18.728;2023-06-10T09:10:35;99232.09;;;21.49;65.76
51249;BME280;39642;47.556;18.728;2023-06-10T09:13:01;99236.56;;;21.48;65.77
51249;BME280;39642;47.556;18.728;2023-06-10T09:15:27;99237.38;;;21.49;65.88
51249;BME280;39642;47.556;18.728;2023-06-10T09:17:53;99233.16;;;21.46;66.08
51249;BME280;39642;47.556;18.728;2023-06-10T09:20:19;99229.53;;;21.47;66.01
51249;BME280;39642;47.556;18.728;2023-06-10T09:22:45;99224.25;;;21.47;66.01
51249;BME280;39642;47.556;18.728;2023-06-10T09:25:12;99225.94;;;21.48;66.09
51249;BME280;39642;47.556;18.728;2023-06-10T09:32:52;99220.66;;;21.48;66.21
51249;BME280;39642;47.556;18.728;2023-06-10T09:35:18;99224.25;;;21.47;66.43
51249;BME280;39642;47.556;18.728;2023-06-10T09:37:44;99225.09;;;21.48;66.41
51249;BME280;39642;47.556;18.728;2023-06-10T09:40:11;99224.25;;;21.47;66.42
51249;BME280;39642;47.556;18.728;2023-06-10T09:42:38;99226.91;;;21.47;66.47
51249;BME280;39642;47.556;18.728;2023-06-10T09:45:06;99226.91;;;21.47;66.42
51249;BME280;39642;47.556;18.728;2023-06-10T09:47:32;99224.16;;;21.49;66.55
51249;BME280;39642;47.556;18.728;2023-06-10T09:49:58;99223.16;;;21.50;66.44
51249;BME280;39642;47.556;18.728;2023-06-10T09:52:26;99220.41;;;21.51;66.41
51249;BME280;39642;47.556;18.728;2023-06-10T09:55:01;99219.59;;;21.51;66.39
51249;BME280;39642;47.556;18.728;2023-06-10T09:57:31;99225.72;;;21.51;66.37
51249;BME280;39642;47.556;18.728;2023-06-10T10:00:06;99222.97;;;21.53;66.33
51249;BME280;39642;47.556;18.728;2023-06-10T10:02:44;99220.31;;;21.53;66.40
51249;BME280;39642;47.556;18.728;2023-06-10T10:05:12;99225.63;;;21.53;66.40
51249;BME280;39642;47.556;18.728;2023-06-10T10:07:38;99223.81;;;21.53;66.37
51249;BME280;39642;47.556;18.728;2023-06-10T10:10:04;99220.19;;;21.54;66.32
51249;BME280;39642;47.556;18.728;2023-06-10T10:12:31;99214.06;;;21.54;66.33
51249;BME280;39642;47.556;18.728;2023-06-10T10:14:57;99210.47;;;21.55;66.33
51249;BME280;39642;47.556;18.728;2023-06-10T10:17:24;99214.91;;;21.54;66.35
51249;BME280;39642;47.556;18.728;2023-06-10T10:19:58;99210.47;;;21.55;66.31
51249;BME280;39642;47.556;18.728;2023-06-10T10:22:30;99209.59;;;21.54;66.29
51249;BME280;39642;47.556;18.728;2023-06-10T10:24:59;99200.81;;;21.54;66.49
51249;BME280;39642;47.556;18.728;2023-06-10T10:27:33;99203.47;;;21.54;66.37
51249;BME280;39642;47.556;18.728;2023-06-10T10:30:01;99204.19;;;21.56;66.27
51249;BME280;39642;47.556;18.728;2023-06-10T10:32:37;99202.38;;;21.56;66.25
51249;BME280;39642;47.556;18.728;2023-06-10T10:35:17;99205.03;;;21.56;66.30
51249;BME280;39642;47.556;18.728;2023-06-10T10:37:47;99201.53;;;21.56;66.30
51249;BME280;39642;47.556;18.728;2023-06-10T10:40:15;99206.00;;;21.55;66.30
51249;BME280;39642;47.556;18.728;2023-06-10T10:42:42;99203.34;;;21.55;66.20
51249;BME280;39642;47.556;18.728;2023-06-10T10:45:09;99193.50;;;21.57;66.13
51249;BME280;39642;47.556;18.728;2023-06-10T10:47:36;99192.63;;;21.57;66.02
51249;BME280;39642;47.556;18.728;2023-06-10T10:50:13;99193.50;;;21.57;66.08
51249;BME280;39642;47.556;18.728;2023-06-10T10:52:59;99185.56;;;21.57;66.07
51249;BME280;39642;47.556;18.728;2023-06-10T10:55:26;99189.03;;;21.58;66.08
51249;BME280;39642;47.556;18.728;2023-06-10T10:57:57;99183.75;;;21.58;65.97
51249;BME280;39642;47.556;18.728;2023-06-10T11:00:31;99182.78;;;21.59;65.97
51249;BME280;39642;47.556;18.728;2023-06-10T11:03:06;99180.13;;;21.59;65.93
51249;BME280;39642;47.556;18.728;2023-06-10T11:10:55;99165.94;;;21.60;65.82
51249;BME280;39642;47.556;18.728;2023-06-10T11:13:21;99169.44;;;21.60;65.75
51249;BME280;39642;47.556;18.728;2023-06-10T11:15:51;99166.78;;;21.60;65.73
51249;BME280;39642;47.556;18.728;2023-06-10T11:18:28;99158.81;;;21.60;65.65
51249;BME280;39642;47.556;18.728;2023-06-10T11:28:41;99154.25;;;21.62;65.48
51249;BME280;39642;47.556;18.728;2023-06-10T11:31:09;99153.44;;;21.62;65.49
51249;BME280;39642;47.556;18.728;2023-06-10T11:33:44;99157.75;;;21.63;65.45
51249;BME280;39642;47.556;18.728;2023-06-10T11:36:10;99158.72;;;21.62;65.46
51249;BME280;39642;47.556;18.728;2023-06-10T11:38:36;99156.06;;;21.62;65.44
51249;BME280;39642;47.556;18.728;2023-06-10T11:41:02;99163.06;;;21.63;65.42
51249;BME280;39642;47.556;18.728;2023-06-10T11:43:29;99153.44;;;21.62;65.35
51249;BME280;39642;47.556;18.728;2023-06-10T11:45:56;99159.56;;;21.62;65.40
51249;BME280;39642;47.556;18.728;2023-06-10T11:48:22;99151.62;;;21.62;65.38
51249;BME280;39642;47.556;18.728;2023-06-10T11:50:48;99149.81;;;21.63;65.40
51249;BME280;39642;47.556;18.728;2023-06-10T11:53:14;99154.25;;;21.62;65.41
51249;BME280;39642;47.556;18.728;2023-06-10T11:55:41;99149.81;;;21.63;65.39
51249;BME280;39642;47.556;18.728;2023-06-10T11:58:21;99141.97;;;21.61;65.39
51249;BME280;39642;47.556;18.728;2023-06-10T12:00:52;99152.44;;;21.63;65.37
51249;BME280;39642;47.556;18.728;2023-06-10T12:03:24;99149.81;;;21.63;65.37
51249;BME280;39642;47.556;18.728;2023-06-10T12:05:57;99145.34;;;21.63;65.23
51249;BME280;39642;47.556;18.728;2023-06-10T12:08:24;99140.91;;;21.64;65.26
51249;BME280;39642;47.556;18.728;2023-06-10T12:10:50;99152.34;;;21.65;65.22
51249;BME280;39642;47.556;18.728;2023-06-10T12:13:16;99141.75;;;21.65;65.23
51249;BME280;39642;47.556;18.728;2023-06-10T12:15:46;99132.84;;;21.66;65.16
51249;BME280;39642;47.556;18.728;2023-06-10T12:18:22;99142.59;;;21.65;65.15
51249;BME280;39642;47.556;18.728;2023-06-10T12:20:49;99146.22;;;21.64;65.26
51249;BME280;39642;47.556;18.728;2023-06-10T12:23:17;99138.25;;;21.64;65.25
51249;BME280;39642;47.556;18.728;2023-06-10T12:25:51;99129.44;;;21.63;65.25
51249;BME280;39642;47.556;18.728;2023-06-10T12:28:20;99125.84;;;21.65;65.21
51249;BME280;39642;47.556;18.728;2023-06-10T12:30:46;99124.16;;;21.63;65.06
51249;BME280;39642;47.556;18.728;2023-06-10T12:33:20;99118.75;;;21.65;65.07
51249;BME280;39642;47.556;18.728;2023-06-10T12:35:51;99118.63;;;21.67;65.05
51249;BME280;39642;47.556;18.728;2023-06-10T12:38:21;99116.00;;;21.67;64.80
51249;BME280;39642;47.556;18.728;2023-06-10T12:40:47;99118.50;;;21.68;64.87
51249;BME280;39642;47.556;18.728;2023-06-10T12:43:19;99122.03;;;21.69;64.86
51249;BME280;39642;47.556;18.728;2023-06-10T12:45:45;99108.03;;;21.67;64.87
51249;BME280;39642;47.556;18.728;2023-06-10T12:48:17;99112.38;;;21.68;65.10
51249;BME280;39642;47.556;18.728;2023-06-10T12:50:44;99121.06;;;21.70;65.27
51249;BME280;39642;47.556;18.728;2023-06-10T12:53:11;99114.81;;;21.71;65.27
51249;BME280;39642;47.556;18.728;2023-06-10T12:55:38;99115.50;;;21.73;65.29
51249;BME280;39642;47.556;18.728;2023-06-10T12:58:04;99113.59;;;21.75;65.22
51249;BME280;39642;47.556;18.728;2023-06-10T13:00:30;99103.00;;;21.75;65.00
51249;BME280;39642;47.556;18.728;2023-06-10T13:02:56;99111.81;;;21.75;65.11
51249;BME280;39642;47.556;18.728;2023-06-10T13:05:22;99109.03;;;21.77;65.05
51249;BME280;39642;47.556;18.728;2023-06-10T13:07:49;99115.19;;;21.77;65.09
51249;BME280;39642;47.556;18.728;2023-06-10T13:10:16;99103.97;;;21.74;64.80